createdAt,value
2019-05-15T00:02:11.127Z,16.56
2019-05-15T00:04:46.329Z,16.47
2019-05-15T00:07:18.655Z,16.32
2019-05-15T00:09:52.716Z,16.25
2019-05-15T00:12:28.398Z,16.24
2019-05-15T00:15:00.691Z,16.31
2019-05-15T00:17:34.110Z,16.24
2019-05-15T00:20:09.639Z,16.24
2019-05-15T00:22:41.078Z,16.26
2019-05-15T00:25:32.786Z,16.15
2019-05-15T00:28:18.528Z,16.06
2019-05-15T00:30:52.725Z,15.73
2019-05-15T00:33:25.979Z,15.51
2019-05-15T00:39:39.751Z,15.44
2019-05-15T00:42:11.613Z,15.36
2019-05-15T00:44:43.509Z,15.36
2019-05-15T00:47:18.240Z,15.37
2019-05-15T00:50:39.703Z,15.33
2019-05-15T00:53:14.970Z,15.51
2019-05-15T00:55:48.584Z,15.68
2019-05-15T00:59:26.253Z,15.79
2019-05-15T01:02:32.250Z,15.99
2019-05-15T01:05:05.130Z,15.96
2019-05-15T01:07:38.930Z,16.00
2019-05-15T01:10:10.759Z,15.95
2019-05-15T01:12:48.527Z,15.97
2019-05-15T01:15:25.193Z,16.04
2019-05-15T01:17:58.304Z,15.64
2019-05-15T01:20:31.977Z,15.78
2019-05-15T01:23:03.778Z,15.58
2019-05-15T01:25:35.477Z,15.41
2019-05-15T01:28:28.926Z,15.14
2019-05-15T01:30:59.174Z,15.05
2019-05-15T01:33:34.442Z,14.95
2019-05-15T01:36:08.551Z,14.75
2019-05-15T01:39:31.835Z,14.61
2019-05-15T01:41:40.106Z,14.58
2019-05-15T01:44:14.190Z,14.63
2019-05-15T01:46:55.139Z,14.64
2019-05-15T01:49:28.050Z,14.72
2019-05-15T01:52:22.971Z,14.84
2019-05-15T01:55:08.828Z,14.86
2019-05-15T01:57:50.194Z,15.01
2019-05-15T02:00:34.194Z,15.09
2019-05-15T02:03:10.790Z,15.03
2019-05-15T02:06:29.034Z,15.02
2019-05-15T02:08:41.896Z,14.97
2019-05-15T02:11:38.272Z,15.04
2019-05-15T02:16:39.284Z,14.65
2019-05-15T02:19:19.359Z,14.62
2019-05-15T02:21:51.526Z,14.64
2019-05-15T02:24:23.735Z,14.69
2019-05-15T02:27:18.436Z,14.68
2019-05-15T02:29:53.120Z,14.68
2019-05-15T02:32:30.166Z,14.59
2019-05-15T02:37:48.872Z,14.34
2019-05-15T02:40:43.019Z,14.29
2019-05-15T02:43:44.083Z,14.49
2019-05-15T02:49:32.424Z,14.28
2019-05-15T02:56:01.326Z,14.18
2019-05-15T02:58:33.082Z,14.09
2019-05-15T03:01:04.807Z,14.14
2019-05-15T03:03:38.711Z,14.07
2019-05-15T03:06:10.395Z,14.01
2019-05-15T03:08:42.179Z,13.99
2019-05-15T03:11:13.917Z,13.98
2019-05-15T03:13:45.677Z,14.06
2019-05-15T03:16:19.531Z,14.09
2019-05-15T03:18:55.169Z,13.89
2019-05-15T03:21:24.425Z,13.66
2019-05-15T03:23:59.592Z,13.56
2019-05-15T03:26:31.398Z,13.77
2019-05-15T03:29:05.724Z,13.92
2019-05-15T03:31:52.786Z,13.69
2019-05-15T03:34:21.545Z,13.76
2019-05-15T03:36:53.027Z,13.79
2019-05-15T03:39:22.149Z,13.87
2019-05-15T03:41:54.287Z,13.86
2019-05-15T03:44:28.709Z,13.90
2019-05-15T03:47:00.854Z,13.87
2019-05-15T03:49:32.565Z,13.73
2019-05-15T03:52:04.342Z,13.62
2019-05-15T03:54:38.980Z,13.54
2019-05-15T03:57:09.897Z,13.43
2019-05-15T03:59:43.639Z,13.34
2019-05-15T04:02:15.511Z,13.62
2019-05-15T04:04:50.183Z,13.56
2019-05-15T04:07:20.789Z,13.57
2019-05-15T04:09:53.869Z,13.53
2019-05-15T04:12:28.782Z,13.48
2019-05-15T04:14:59.694Z,13.37
2019-05-15T04:17:31.990Z,13.58
2019-05-15T04:20:03.750Z,13.56
2019-05-15T04:22:35.488Z,13.52
2019-05-15T04:25:09.754Z,13.41
2019-05-15T04:27:41.565Z,13.31
2019-05-15T04:30:13.913Z,13.27
2019-05-15T04:32:48.579Z,13.04
2019-05-15T04:35:20.091Z,12.73
2019-05-15T04:37:51.787Z,12.60
2019-05-15T04:40:23.503Z,12.57
2019-05-15T04:42:55.204Z,12.71
2019-05-15T04:45:34.408Z,13.10
2019-05-15T04:48:03.829Z,12.92
2019-05-15T04:50:35.557Z,12.84
2019-05-15T04:53:10.770Z,12.90
2019-05-15T04:55:41.044Z,12.84
2019-05-15T04:58:12.831Z,12.79
2019-05-15T05:00:49.977Z,12.56
2019-05-15T05:03:21.978Z,12.39
2019-05-15T05:05:54.292Z,12.48
2019-05-15T05:08:28.697Z,12.41
2019-05-15T05:10:59.537Z,12.37
2019-05-15T05:13:31.259Z,12.23
2019-05-15T05:16:02.995Z,12.19
2019-05-15T05:18:34.717Z,12.26
2019-05-15T05:21:07.993Z,12.40
2019-05-15T05:23:39.984Z,12.35
2019-05-15T05:26:11.679Z,12.50
2019-05-15T05:28:43.457Z,12.53
2019-05-15T05:31:15.194Z,12.66
2019-05-15T05:33:50.128Z,12.63
2019-05-15T05:36:22.034Z,12.65
2019-05-15T05:38:53.750Z,12.54
2019-05-15T05:41:28.096Z,12.55
2019-05-15T05:44:00.320Z,12.62
2019-05-15T05:46:32.015Z,12.71
2019-05-15T05:49:05.031Z,12.72
2019-05-15T05:51:38.715Z,12.83
2019-05-15T05:54:10.183Z,13.00
2019-05-15T05:56:42.452Z,13.15
2019-05-15T05:59:14.177Z,13.16
2019-05-15T06:01:48.163Z,13.36
2019-05-15T06:04:19.330Z,14.55
2019-05-15T06:07:06.291Z,15.35
2019-05-15T06:09:27.817Z,15.82
2019-05-15T06:11:59.862Z,15.52
2019-05-15T06:14:31.574Z,15.59
2019-05-15T06:17:03.403Z,16.62
2019-05-15T06:19:35.123Z,17.19
2019-05-15T06:22:08.810Z,17.98
2019-05-15T06:24:42.393Z,18.83
2019-05-15T06:27:14.186Z,19.55
2019-05-15T06:29:45.914Z,19.38
2019-05-15T06:32:19.523Z,19.81
2019-05-15T06:34:51.238Z,20.90
2019-05-15T06:37:22.931Z,21.78
2019-05-15T06:39:54.674Z,22.09
2019-05-15T06:42:28.305Z,22.31
2019-05-15T06:45:00.253Z,22.63
2019-05-15T06:47:39.426Z,23.20
2019-05-15T06:50:50.106Z,23.43
2019-05-15T06:53:44.806Z,23.38
2019-05-15T06:56:18.783Z,24.36
2019-05-15T06:58:54.989Z,24.49
2019-05-15T07:01:29.432Z,24.77
2019-05-15T07:04:01.427Z,24.96
2019-05-15T07:06:35.006Z,25.35
2019-05-15T07:09:09.456Z,25.25
2019-05-15T07:11:40.816Z,25.66
2019-05-15T07:14:12.606Z,26.03
2019-05-15T07:16:44.375Z,26.17
2019-05-15T07:19:18.820Z,25.98
2019-05-15T07:21:50.747Z,23.62
2019-05-15T07:24:23.458Z,25.13
2019-05-15T07:26:59.122Z,25.51
2019-05-15T07:29:31.303Z,25.74
2019-05-15T07:32:04.969Z,26.63
2019-05-15T07:34:38.242Z,27.06
2019-05-15T07:37:10.061Z,27.75
2019-05-15T07:39:42.025Z,27.70
2019-05-15T07:42:13.754Z,27.56
2019-05-15T07:44:48.168Z,28.11
2019-05-15T07:47:20.316Z,28.46
2019-05-15T07:49:52.110Z,28.63
2019-05-15T07:52:23.846Z,28.79
2019-05-15T07:54:58.281Z,29.44
2019-05-15T07:57:30.505Z,29.92
2019-05-15T08:00:02.257Z,30.56
2019-05-15T08:02:34.678Z,31.01
2019-05-15T08:05:08.384Z,30.87
2019-05-15T08:07:42.737Z,31.21
2019-05-15T08:10:18.154Z,29.32
2019-05-15T08:12:49.612Z,29.73
2019-05-15T08:15:21.395Z,30.10
2019-05-15T08:18:08.174Z,30.00
2019-05-15T08:20:28.822Z,29.89
2019-05-15T08:23:00.023Z,30.49
2019-05-15T08:25:35.333Z,30.08
2019-05-15T08:28:05.199Z,30.34
2019-05-15T08:30:38.728Z,30.27
2019-05-15T08:33:10.465Z,31.19
2019-05-15T08:35:45.867Z,31.42
2019-05-15T08:38:17.974Z,32.10
2019-05-15T08:40:49.397Z,32.18
2019-05-15T08:43:23.703Z,32.80
2019-05-15T08:45:58.620Z,32.94
2019-05-15T08:48:32.796Z,29.92
2019-05-15T08:51:04.534Z,32.55
2019-05-15T08:53:38.005Z,33.10
2019-05-15T08:56:09.682Z,33.36
2019-05-15T08:58:41.423Z,31.90
2019-05-15T09:01:13.521Z,32.43
2019-05-15T09:03:49.002Z,32.27
2019-05-15T09:06:25.505Z,31.00
2019-05-15T09:08:58.510Z,33.45
2019-05-15T09:11:30.434Z,33.04
2019-05-15T09:14:02.585Z,33.53
2019-05-15T09:16:34.322Z,32.71
2019-05-15T09:19:08.260Z,33.93
2019-05-15T09:21:39.547Z,35.21
2019-05-15T09:24:11.728Z,35.78
2019-05-15T09:26:43.466Z,34.75
2019-05-15T09:29:18.297Z,33.36
2019-05-15T09:31:51.314Z,33.01
2019-05-15T09:34:23.487Z,34.07
2019-05-15T09:36:55.245Z,34.88
2019-05-15T09:39:28.670Z,33.05
2019-05-15T09:42:00.708Z,31.96
2019-05-15T09:44:32.607Z,31.47
2019-05-15T09:47:04.409Z,33.12
2019-05-15T09:49:36.177Z,32.95
2019-05-15T09:52:09.275Z,33.68
2019-05-15T09:54:41.672Z,33.95
2019-05-15T09:57:15.159Z,32.88
2019-05-15T09:59:48.796Z,35.00
2019-05-15T10:02:20.660Z,34.96
2019-05-15T10:05:05.483Z,35.79
2019-05-15T10:07:28.434Z,33.68
2019-05-15T10:10:02.373Z,34.58
2019-05-15T10:12:35.475Z,34.14
2019-05-15T10:15:11.117Z,34.93
2019-05-15T10:17:45.026Z,34.66
2019-05-15T10:20:19.632Z,30.45
2019-05-15T10:22:54.724Z,29.22
2019-05-15T10:25:28.169Z,29.68
2019-05-15T10:28:00.080Z,31.14
2019-05-15T10:30:34.049Z,31.02
2019-05-15T10:33:08.357Z,31.74
2019-05-15T10:35:39.509Z,31.42
2019-05-15T10:38:12.199Z,31.16
2019-05-15T10:41:00.034Z,31.92
2019-05-15T10:43:20.846Z,33.48
2019-05-15T10:45:54.784Z,31.93
2019-05-15T10:48:29.183Z,32.08
2019-05-15T10:51:06.268Z,32.08
2019-05-15T10:53:34.325Z,31.44
2019-05-15T10:56:08.730Z,31.56
2019-05-15T10:58:39.796Z,32.41
2019-05-15T11:01:11.655Z,32.48
2019-05-15T11:03:45.289Z,31.12
2019-05-15T11:06:18.291Z,30.03
2019-05-15T11:08:51.622Z,30.09
2019-05-15T11:11:23.671Z,30.28
2019-05-15T11:14:00.264Z,31.63
2019-05-15T11:16:29.969Z,30.93
2019-05-15T11:19:01.726Z,33.05
2019-05-15T11:21:33.525Z,32.78
2019-05-15T11:24:05.329Z,31.69
2019-05-15T11:26:40.015Z,31.53
2019-05-15T11:29:13.601Z,31.83
2019-05-15T11:31:45.348Z,32.51
2019-05-15T11:34:18.781Z,33.14
2019-05-15T11:36:50.764Z,32.25
2019-05-15T11:39:22.507Z,32.53
2019-05-15T11:41:54.329Z,33.09
2019-05-15T11:44:28.117Z,32.63
2019-05-15T11:46:59.510Z,31.12
2019-05-15T11:49:31.318Z,29.71
2019-05-15T11:52:03.044Z,30.26
2019-05-15T11:54:34.780Z,30.51
2019-05-15T11:57:08.628Z,30.60
2019-05-15T11:59:44.957Z,30.15
2019-05-15T12:02:14.799Z,29.66
2019-05-15T12:04:46.557Z,29.65
2019-05-15T12:07:18.370Z,29.43
2019-05-15T12:09:51.961Z,29.03
2019-05-15T12:12:23.708Z,29.54
2019-05-15T12:14:55.540Z,29.66
2019-05-15T12:17:28.448Z,29.63
2019-05-15T12:22:33.985Z,30.58
2019-05-15T12:27:41.558Z,30.71
2019-05-15T12:30:13.338Z,30.50
2019-05-15T12:35:20.805Z,30.36
2019-05-15T12:37:54.638Z,29.72
2019-05-15T13:01:12.739Z,30.21
2019-05-15T13:03:35.289Z,30.32
2019-05-15T13:06:08.093Z,30.31
2019-05-15T13:08:41.823Z,29.97
2019-05-15T13:11:15.114Z,29.64
2019-05-15T13:13:48.560Z,29.51
2019-05-15T13:16:20.592Z,29.22
2019-05-15T13:18:52.367Z,29.36
2019-05-15T13:21:24.098Z,29.77
2019-05-15T13:23:55.897Z,29.49
2019-05-15T13:26:29.517Z,29.75
2019-05-15T13:29:01.237Z,29.79
2019-05-15T13:31:33.053Z,29.45
2019-05-15T13:34:04.765Z,29.71
2019-05-15T13:36:38.997Z,29.86
2019-05-15T13:39:09.965Z,30.16
2019-05-15T13:41:41.756Z,29.32
2019-05-15T13:44:13.504Z,29.53
2019-05-15T13:46:45.217Z,29.40
2019-05-15T13:49:18.742Z,29.05
2019-05-15T13:51:50.462Z,29.15
2019-05-15T13:54:22.877Z,29.33
2019-05-15T13:56:54.663Z,28.84
2019-05-15T13:59:28.512Z,28.34
2019-05-15T14:02:00.171Z,28.33
2019-05-15T14:04:31.902Z,28.78
2019-05-15T14:07:03.653Z,29.01
2019-05-15T14:09:35.401Z,29.24
2019-05-15T14:12:12.426Z,29.28
2019-05-15T14:14:42.177Z,28.74
2019-05-15T14:17:13.981Z,28.25
2019-05-15T14:19:45.723Z,27.90
2019-05-15T14:22:17.445Z,27.54
2019-05-15T14:24:49.479Z,28.07
2019-05-15T14:27:21.229Z,28.32
2019-05-15T14:29:52.968Z,28.01
2019-05-15T14:32:35.515Z,28.43
2019-05-15T14:34:58.569Z,28.31
2019-05-15T14:37:31.158Z,28.34
2019-05-15T14:40:03.002Z,28.41
2019-05-15T14:42:34.745Z,28.24
2019-05-15T14:45:09.394Z,28.51
2019-05-15T14:47:41.118Z,28.21
2019-05-15T14:50:12.837Z,28.56
2019-05-15T14:52:48.144Z,28.81
2019-05-15T14:55:21.979Z,28.45
2019-05-15T14:57:53.691Z,28.27
2019-05-15T15:00:28.793Z,28.23
2019-05-15T15:02:59.108Z,28.42
2019-05-15T15:05:31.371Z,27.97
2019-05-15T15:08:17.331Z,28.28
2019-05-15T15:10:38.434Z,28.10
2019-05-15T15:13:14.791Z,28.30
2019-05-15T15:15:48.500Z,28.27
2019-05-15T15:18:19.950Z,28.25
2019-05-15T15:20:51.705Z,28.19
2019-05-15T15:23:23.463Z,27.95
2019-05-15T15:25:57.805Z,28.00
2019-05-15T15:28:29.865Z,27.89
2019-05-15T15:31:03.898Z,27.35
2019-05-15T15:33:39.002Z,27.51
2019-05-15T15:36:11.148Z,27.54
2019-05-15T15:38:44.208Z,27.45
2019-05-15T15:41:16.255Z,27.55
2019-05-15T15:43:48.607Z,27.07
2019-05-15T15:46:20.387Z,27.22
2019-05-15T15:48:52.232Z,27.05
2019-05-15T15:51:23.939Z,27.06
2019-05-15T15:53:57.930Z,26.94
2019-05-15T15:56:30.058Z,26.77
2019-05-15T15:59:01.946Z,26.95
2019-05-15T16:01:33.753Z,27.08
2019-05-15T16:04:05.500Z,26.57
2019-05-15T16:06:38.795Z,26.80
2019-05-15T16:09:10.882Z,27.05
2019-05-15T16:11:42.673Z,26.99
2019-05-15T16:14:14.402Z,26.88
2019-05-15T16:16:48.466Z,26.90
2019-05-15T16:19:19.796Z,26.81
2019-05-15T16:21:53.231Z,26.74
2019-05-15T16:24:25.353Z,26.74
2019-05-15T16:26:57.942Z,26.44
2019-05-15T16:29:32.300Z,26.40
2019-05-15T16:32:04.490Z,26.36
2019-05-15T16:34:39.104Z,26.43
2019-05-15T16:37:10.155Z,26.24
2019-05-15T16:39:41.979Z,26.24
2019-05-15T16:42:13.714Z,26.19
2019-05-15T16:44:45.819Z,26.06
2019-05-15T16:47:18.611Z,25.93
2019-05-15T16:49:50.677Z,25.47
2019-05-15T16:52:22.440Z,25.26
2019-05-15T16:54:54.171Z,25.13
2019-05-15T16:57:31.117Z,25.01
2019-05-15T17:00:04.077Z,24.93
2019-05-15T17:02:39.591Z,25.03
2019-05-15T17:05:12.563Z,25.22
2019-05-15T17:07:44.287Z,25.46
2019-05-15T17:10:16.414Z,25.17
2019-05-15T17:12:49.241Z,25.17
2019-05-15T17:15:21.412Z,25.21
2019-05-15T17:17:53.622Z,25.03
2019-05-15T17:20:25.708Z,24.97
2019-05-15T17:22:57.885Z,24.95
2019-05-15T17:25:29.983Z,24.70
2019-05-15T17:28:01.694Z,24.81
2019-05-15T17:30:34.558Z,24.80
2019-05-15T17:33:06.731Z,24.65
2019-05-15T17:35:38.574Z,24.50
2019-05-15T17:38:10.497Z,24.45
2019-05-15T17:40:43.708Z,24.55
2019-05-15T17:43:18.269Z,24.12
2019-05-15T17:45:51.019Z,23.88
2019-05-15T17:48:24.032Z,23.91
2019-05-15T17:50:58.422Z,23.68
2019-05-15T17:53:29.257Z,23.79
2019-05-15T17:56:02.411Z,23.97
2019-05-15T17:58:34.459Z,23.74
2019-05-15T18:01:08.701Z,23.63
2019-05-15T18:03:39.786Z,23.55
2019-05-15T18:06:14.804Z,23.56
2019-05-15T18:08:48.599Z,23.34
2019-05-15T18:11:22.885Z,23.36
2019-05-15T18:13:58.204Z,23.22
2019-05-15T18:16:32.040Z,23.06
2019-05-15T18:19:03.995Z,22.90
2019-05-15T18:21:38.133Z,22.68
2019-05-15T18:24:10.467Z,22.68
2019-05-15T18:26:42.308Z,22.42
2019-05-15T18:29:14.102Z,22.04
2019-05-15T18:31:48.029Z,22.17
2019-05-15T18:34:19.771Z,22.03
2019-05-15T18:36:53.480Z,21.86
2019-05-15T18:39:25.292Z,21.79
2019-05-15T18:41:57.801Z,21.59
2019-05-15T18:44:31.547Z,21.42
2019-05-15T18:47:05.658Z,21.15
2019-05-15T18:49:38.082Z,21.21
2019-05-15T18:52:13.999Z,20.91
2019-05-15T18:54:48.053Z,20.87
2019-05-15T18:57:20.187Z,20.69
2019-05-15T18:59:52.294Z,20.66
2019-05-15T19:02:24.456Z,20.64
2019-05-15T19:04:58.540Z,20.49
2019-05-15T19:07:29.791Z,20.09
2019-05-15T19:10:01.604Z,20.10
2019-05-15T19:12:35.076Z,20.13
2019-05-15T19:15:09.318Z,20.14
2019-05-15T19:17:40.624Z,19.85
2019-05-15T19:20:12.774Z,19.71
2019-05-15T19:22:44.531Z,19.54
2019-05-15T19:25:17.924Z,19.39
2019-05-15T19:27:50.235Z,19.25
2019-05-15T19:30:22.061Z,19.07
2019-05-15T19:32:55.563Z,19.04
2019-05-15T19:35:28.305Z,18.98
2019-05-15T19:38:00.171Z,18.71
2019-05-15T19:40:32.056Z,18.74
2019-05-15T19:43:04.192Z,18.73
2019-05-15T19:45:45.196Z,18.70
2019-05-15T19:48:19.946Z,18.38
2019-05-15T19:50:50.833Z,18.40
2019-05-15T19:53:22.970Z,18.28
2019-05-15T19:55:58.024Z,17.98
2019-05-15T19:58:30.246Z,17.95
2019-05-15T20:01:02.060Z,17.89
2019-05-15T20:03:45.402Z,17.87
2019-05-15T20:06:08.377Z,17.75
2019-05-15T20:08:40.371Z,17.75
2019-05-15T20:11:13.767Z,17.67
2019-05-15T20:13:50.930Z,17.67
2019-05-15T20:16:28.477Z,17.61
2019-05-15T20:19:00.669Z,17.47
2019-05-15T20:21:32.865Z,17.43
2019-05-15T20:24:04.823Z,17.30
2019-05-15T20:26:38.048Z,17.31
2019-05-15T20:29:10.273Z,17.03
2019-05-15T20:31:43.947Z,17.12
2019-05-15T20:34:15.730Z,16.96
2019-05-15T20:36:48.831Z,16.79
2019-05-15T20:39:21.138Z,16.70
2019-05-15T20:41:53.199Z,16.74
2019-05-15T20:44:26.805Z,16.59
2019-05-15T20:46:59.159Z,16.42
2019-05-15T20:49:32.452Z,16.45
2019-05-15T20:52:04.267Z,16.40
2019-05-15T20:54:38.623Z,16.40
2019-05-15T20:57:09.855Z,16.31
2019-05-15T20:59:41.966Z,16.13
2019-05-15T21:02:14.029Z,16.27
2019-05-15T21:04:47.596Z,16.35
2019-05-15T21:07:34.437Z,16.33
2019-05-15T21:09:53.850Z,16.31
2019-05-15T21:12:29.385Z,15.89
2019-05-15T21:15:00.661Z,16.11
2019-05-15T21:17:33.958Z,16.17
2019-05-15T21:20:06.029Z,16.17
2019-05-15T21:22:40.430Z,16.05
2019-05-15T21:25:12.287Z,15.96
2019-05-15T21:27:44.278Z,16.07
2019-05-15T21:30:18.992Z,16.04
2019-05-15T21:32:50.629Z,15.98
2019-05-15T21:35:22.398Z,15.97
2019-05-15T21:37:54.150Z,15.80
2019-05-15T21:40:27.934Z,15.79
2019-05-15T21:42:59.375Z,15.71
2019-05-15T21:45:35.254Z,15.75
2019-05-15T21:48:09.022Z,15.90
2019-05-15T21:50:41.004Z,15.83
2019-05-15T21:53:12.800Z,15.74
2019-05-15T21:55:44.569Z,15.86
2019-05-15T21:58:18.606Z,15.77
2019-05-15T22:00:52.696Z,15.50
2019-05-15T22:03:25.662Z,15.51
2019-05-15T22:05:59.315Z,15.49
2019-05-15T22:08:31.075Z,15.59
2019-05-15T22:11:03.825Z,15.52
2019-05-15T22:14:22.765Z,15.68
2019-05-15T22:17:55.199Z,15.57
2019-05-15T22:20:30.572Z,15.63
2019-05-15T22:23:08.206Z,15.70
2019-05-15T22:26:00.350Z,15.70
2019-05-15T22:28:33.720Z,15.76
2019-05-15T22:35:05.775Z,15.89
2019-05-15T22:37:23.749Z,15.95
2019-05-15T22:40:00.888Z,15.89
2019-05-15T22:42:34.974Z,15.93
2019-05-15T22:45:09.071Z,15.99
2019-05-15T22:47:41.129Z,15.92
2019-05-15T22:50:14.877Z,15.94
2019-05-15T22:52:49.375Z,15.89
2019-05-15T22:55:21.559Z,16.07
2019-05-15T22:57:53.936Z,16.14
2019-05-15T23:00:28.651Z,16.19
2019-05-15T23:02:59.388Z,16.19
2019-05-15T23:05:31.939Z,16.15
2019-05-15T23:08:05.623Z,15.96
2019-05-15T23:10:39.006Z,16.03
2019-05-15T23:13:11.112Z,16.03
2019-05-15T23:15:42.868Z,16.05
2019-05-15T23:18:17.907Z,16.18
2019-05-15T23:20:51.377Z,16.02
2019-05-15T23:23:25.282Z,16.10
2019-05-15T23:25:57.798Z,16.10
2019-05-15T23:28:29.866Z,16.15
2019-05-15T23:31:02.898Z,16.30
2019-05-15T23:33:34.717Z,16.31
2019-05-15T23:36:06.523Z,16.20
2019-05-15T23:38:38.555Z,16.22
2019-05-15T23:41:11.987Z,16.18
2019-05-15T23:43:45.502Z,16.18
2019-05-15T23:46:28.805Z,16.16
2019-05-15T23:49:00.648Z,16.12
2019-05-15T23:51:33.278Z,15.86
2019-05-15T23:54:08.303Z,16.05
2019-05-15T23:56:41.685Z,15.87
2019-05-15T23:59:13.494Z,15.94
